Arethusa — 9HJR9 — position and weather

sailwx.info

Track history (hours):
 
Tides and Currents Weather Stations Pressure Air Temp Water Temp Dewpoint Dewpoint Depression Visibility Wind Speed Wind Dir Waves Ship Positions

Arethusa

Last reported at 2017-Dec-11 16:40 UTC. Time now 2017-Dec-12 04:50 UTC.
Position N 45°39' E 013°46'.

Length 60 m; draft 3 m.

Type: Passenger vessel. MMSI: 249069000.

Date/timePositionNaut miles runAvg speedWind from/ knotsBaromVisibWave heightAir tempDewpointWater temp
2017-Dec-11 16:40N 45°39' E 013°46'0 0.0
2017-Dec-11 16:28N 45°39' E 013°46'0 0.0
2017-Dec-11 15:01N 45°39' E 013°46'0 0.0
2017-Dec-11 14:43N 45°39' E 013°46'0 0.0
2017-Dec-11 14:13N 45°39' E 013°46'0 0.0
2017-Dec-11 13:55N 45°39' E 013°46'0 0.0
2017-Dec-11 13:22N 45°39' E 013°46'0 0.0
2017-Dec-11 12:52N 45°39' E 013°46'0 0.0
2017-Dec-11 12:28N 45°39' E 013°46'0 0.0
2017-Dec-11 11:55N 45°39' E 013°46'0 0.0
2017-Dec-11 11:28N 45°39' E 013°46'0 0.0
2017-Dec-11 10:52N 45°39' E 013°46'0 0.0
2017-Dec-11 10:19N 45°39' E 013°46'0 0.0
2017-Dec-11 09:58N 45°39' E 013°46'0 0.0
2017-Dec-11 09:28N 45°39' E 013°46'0 0.0
2017-Dec-11 08:43N 45°39' E 013°46'0 0.0
2017-Dec-11 08:22N 45°39' E 013°46'0 0.0
2017-Dec-11 06:52N 45°39' E 013°46'0 0.0
2017-Dec-11 06:19N 45°39' E 013°46'0 0.1
2017-Dec-11 05:52N 45°39' E 013°46'1 3.7
2017-Dec-11 05:29N 45°40' E 013°44'0 0.4
2017-Dec-11 04:59N 45°40' E 013°44'0 0.0
2017-Dec-11 04:29N 45°40' E 013°44'0 0.0
2017-Dec-11 03:59N 45°40' E 013°44'0 0.0
2017-Dec-11 03:26N 45°40' E 013°44'0 0.0
2017-Dec-11 02:59N 45°40' E 013°44'0 0.0
2017-Dec-11 02:29N 45°40' E 013°44'0 0.0
2017-Dec-11 01:56N 45°40' E 013°44'0 0.0
2017-Dec-11 01:23N 45°40' E 013°44'0 0.0
2017-Dec-11 00:50N 45°40' E 013°44'0 0.0
2017-Dec-11 00:29N 45°40' E 013°44'0 0.0
2017-Dec-11 00:00N 45°40' E 013°44'2 3.4
2017-Dec-10 23:30N 45°39' E 013°42'4 7.0
2017-Dec-10 23:00N 45°35' E 013°40'4 6.2
2017-Dec-10 22:25N 45°33' E 013°44'0 0.0
2017-Dec-10 21:55N 45°33' E 013°44'0 0.0
2017-Dec-10 21:25N 45°33' E 013°44'0 0.0
2017-Dec-10 20:58N 45°33' E 013°44'0 0.0
2017-Dec-10 20:28N 45°33' E 013°44'0 0.0
2017-Dec-10 19:58N 45°33' E 013°44'0 0.0
2017-Dec-10 19:28N 45°33' E 013°44'0 0.0
2017-Dec-10 18:58N 45°33' E 013°44'0 0.0
2017-Dec-10 18:28N 45°33' E 013°44'0 0.0
2017-Dec-10 17:58N 45°33' E 013°44'0 0.0
2017-Dec-10 17:28N 45°33' E 013°44'0 0.0
2017-Dec-10 16:49N 45°33' E 013°44'0 0.0
2017-Dec-10 16:28N 45°33' E 013°44'0 0.0
2017-Dec-10 15:58N 45°33' E 013°44'0 0.0
2017-Dec-10 15:19N 45°33' E 013°44'0 0.0
2017-Dec-10 14:58N 45°33' E 013°44'0 0.0
2017-Dec-10 14:28N 45°33' E 013°44'0 0.0
2017-Dec-10 13:58N 45°33' E 013°44'0 0.0
2017-Dec-10 13:28N 45°33' E 013°44'0 0.0
2017-Dec-10 12:58N 45°33' E 013°44'0 0.0
2017-Dec-10 12:28N 45°33' E 013°44'0 0.0
2017-Dec-10 11:58N 45°33' E 013°44'0 0.0
2017-Dec-10 11:22N 45°33' E 013°44'0 0.0
2017-Dec-10 10:43N 45°33' E 013°44'0 0.0
2017-Dec-10 10:28N 45°33' E 013°44'0 0.0
2017-Dec-10 09:46N 45°33' E 013°44'0 0.0
2017-Dec-10 09:25N 45°33' E 013°44'0 0.0
2017-Dec-10 08:58N 45°33' E 013°44'0 0.0
2017-Dec-10 08:28N 45°33' E 013°44'0 0.0
2017-Dec-10 07:52N 45°33' E 013°44'0 0.0
2017-Dec-10 07:28N 45°33' E 013°44'0 0.0
2017-Dec-10 06:58N 45°33' E 013°44'0 0.0
2017-Dec-10 06:30N 45°33' E 013°44'2 3.5
2017-Dec-10 05:56N 45°34' E 013°42'0 0.1
2017-Dec-10 05:29N 45°34' E 013°42'0 0.0
2017-Dec-10 04:59N 45°34' E 013°42'0 0.0
2017-Dec-10 04:29N 45°34' E 013°42'0 0.0
2017-Dec-10 03:59N 45°34' E 013°42'0 0.0
2017-Dec-10 03:29N 45°34' E 013°42'0 0.0
2017-Dec-10 02:59N 45°34' E 013°42'0 0.0
2017-Dec-10 02:29N 45°34' E 013°42'0 0.0
2017-Dec-10 01:59N 45°34' E 013°42'0 0.0
2017-Dec-10 01:29N 45°34' E 013°42'0 0.0
2017-Dec-10 00:59N 45°34' E 013°42'0 0.0
2017-Dec-10 00:29N 45°34' E 013°42'0 0.0
2017-Dec-09 23:59N 45°34' E 013°42'0 0.0
2017-Dec-09 23:29N 45°34' E 013°42'0 0.0
2017-Dec-09 22:59N 45°34' E 013°42'0 0.0
2017-Dec-09 22:29N 45°34' E 013°42'0 0.0
2017-Dec-09 21:59N 45°34' E 013°42'0 0.0
2017-Dec-09 21:29N 45°34' E 013°42'0 0.0
2017-Dec-09 21:01N 45°34' E 013°42'1 3.0
2017-Dec-09 20:30N 45°34' E 013°39'5 9.5
2017-Dec-09 20:01N 45°35' E 013°33'5 9.6
2017-Dec-09 19:30N 45°32' E 013°27'5 9.7
2017-Dec-09 19:00N 45°27' E 013°27'5 9.9
2017-Dec-09 18:30N 45°22' E 013°27'5 9.9
2017-Dec-09 18:00N 45°18' E 013°28'5 9.7
2017-Dec-09 17:31N 45°13' E 013°29'5 9.5
2017-Dec-09 17:01N 45°08' E 013°30'5 9.1
2017-Dec-09 16:31N 45°05' E 013°35'2 3.6
2017-Dec-09 15:52N 45°05' E 013°38'0 0.0
2017-Dec-09 15:28N 45°05' E 013°38'0 0.0
2017-Dec-09 14:58N 45°05' E 013°38'0 0.0
2017-Dec-09 14:25N 45°05' E 013°38'0 0.0
2017-Dec-09 13:58N 45°05' E 013°38'0 0.0
2017-Dec-09 13:28N 45°05' E 013°38'0 0.0
2017-Dec-09 12:58N 45°05' E 013°38'0 0.0
2017-Dec-09 12:28N 45°05' E 013°38'0 0.0
2017-Dec-09 11:58N 45°05' E 013°38'0 0.0
2017-Dec-09 11:22N 45°05' E 013°38'0 0.0
2017-Dec-09 10:55N 45°05' E 013°38'0 0.0
2017-Dec-09 10:28N 45°05' E 013°38'0 0.0
2017-Dec-09 09:52N 45°05' E 013°38'0 0.0
2017-Dec-09 09:28N 45°05' E 013°38'0 0.0
2017-Dec-09 08:52N 45°05' E 013°38'0 0.0
2017-Dec-09 08:25N 45°05' E 013°38'0 0.0
2017-Dec-09 07:58N 45°05' E 013°38'0 0.0
2017-Dec-09 07:28N 45°05' E 013°38'2 4.4
2017-Dec-09 07:00N 45°04' E 013°36'4 8.8
2017-Dec-09 06:30N 45°00' E 013°39'611.2
2017-Dec-09 06:00N 44°57' E 013°46'5 0.2
2017-Dec-07 22:15N 44°53' E 013°50'2 6.2
2017-Dec-07 21:58N 44°53' E 013°48'4 8.6
2017-Dec-07 21:30N 44°54' E 013°42'611.0
2017-Dec-07 21:00N 44°56' E 013°35'611.1
2017-Dec-07 20:30N 44°58' E 013°28'611.3
2017-Dec-07 20:00N 45°01' E 013°21'611.3
2017-Dec-07 19:30N 45°03' E 013°13'611.3
2017-Dec-07 19:00N 45°05' E 013°06'611.3
2017-Dec-07 18:30N 45°08' E 012°59'611.4
2017-Dec-07 18:00N 45°11' E 012°52'611.4
2017-Dec-07 17:30N 45°15' E 012°46'611.4
2017-Dec-07 17:00N 45°18' E 012°39'611.5
2017-Dec-07 16:30N 45°21' E 012°33'611.4
2017-Dec-07 16:00N 45°25' E 012°26'3 6.8
2017-Dec-07 15:30N 45°25' E 012°22'2 3.4
2017-Dec-07 15:00N 45°26' E 012°19'0 0.0
2017-Dec-07 14:30N 45°26' E 012°19'0 0.0
2017-Dec-07 14:00N 45°26' E 012°19'0 0.0
2017-Dec-07 13:30N 45°26' E 012°19'0 0.0
2017-Dec-07 13:00N 45°26' E 012°19'0 0.0
2017-Dec-07 12:30N 45°26' E 012°19'0 0.0
2017-Dec-07 12:00N 45°26' E 012°19'0 0.0
2017-Dec-07 11:30N 45°26' E 012°19'0 0.0
2017-Dec-07 11:00N 45°26' E 012°19'0 0.0
2017-Dec-07 10:30N 45°26' E 012°19'0 0.0
2017-Dec-07 09:57N 45°26' E 012°19'0 0.0
2017-Dec-07 09:30N 45°26' E 012°19'0 0.0
2017-Dec-07 09:00N 45°26' E 012°19'0 0.0
2017-Dec-07 08:30N 45°26' E 012°19'0 0.0
2017-Dec-07 08:00N 45°26' E 012°19'0 0.0
2017-Dec-07 07:30N 45°26' E 012°19'0 0.0
2017-Dec-07 07:00N 45°26' E 012°19'0 0.0
2017-Dec-07 06:30N 45°26' E 012°19'0 0.0
2017-Dec-07 06:00N 45°26' E 012°19'0 0.0
2017-Dec-07 05:30N 45°26' E 012°19'0 0.0
2017-Dec-07 05:00N 45°26' E 012°19'0 0.0
2017-Dec-07 04:30N 45°26' E 012°19'0 0.0
2017-Dec-07 03:57N 45°26' E 012°19'0 0.0
2017-Dec-07 03:30N 45°26' E 012°19'0 0.0
2017-Dec-07 02:57N 45°26' E 012°19'0 0.0
2017-Dec-07 02:30N 45°26' E 012°19'0 0.0
2017-Dec-07 02:00N 45°26' E 012°19'0 0.0
2017-Dec-07 01:30N 45°26' E 012°19'0 0.0
2017-Dec-07 00:57N 45°26' E 012°19'0 0.0
2017-Dec-07 00:30N 45°26' E 012°19'0 0.0
2017-Dec-06 23:57N 45°26' E 012°19'0 0.0
2017-Dec-06 23:30N 45°26' E 012°19'0 0.1
2017-Dec-06 23:01N 45°26' E 012°19'2 5.0
2017-Dec-06 22:30N 45°26' E 012°23'4 8.6
2017-Dec-06 22:00N 45°24' E 012°29'9 9.7
2017-Dec-06 21:03N 45°25' E 012°42'110.1
2017-Dec-06 20:55N 45°26' E 012°43'  
2017-Dec-04 06:11N 45°46' E 013°38'0 2.6
2017-Dec-04 06:00N 45°46' E 013°38'4 7.0
2017-Dec-04 05:29N 45°42' E 013°38'4 8.2
2017-Dec-04 05:00N 45°39' E 013°37'5 9.8
2017-Dec-04 04:30N 45°35' E 013°32'5 9.9
2017-Dec-04 04:00N 45°32' E 013°26'5 9.8
2017-Dec-04 03:30N 45°27' E 013°27'5 9.9
2017-Dec-04 03:00N 45°22' E 013°27'5 9.7
2017-Dec-04 02:30N 45°17' E 013°28'5 9.7
2017-Dec-04 02:00N 45°12' E 013°29'5 9.0
2017-Dec-04 01:30N 45°08' E 013°30'5 9.5
2017-Dec-04 01:00N 45°05' E 013°36'2 2.5
2017-Dec-04 00:22N 45°05' E 013°38'0 0.0
2017-Dec-03 23:58N 45°05' E 013°38'0 0.0
2017-Dec-03 23:28N 45°05' E 013°38'0 0.0
2017-Dec-03 22:55N 45°05' E 013°38'0 0.0
2017-Dec-03 22:28N 45°05' E 013°38'0 0.0
2017-Dec-03 21:52N 45°05' E 013°38'0 0.0
2017-Dec-03 21:28N 45°05' E 013°38'0 0.0
2017-Dec-03 20:58N 45°05' E 013°38'0 0.0
2017-Dec-03 20:25N 45°05' E 013°38'0 0.0
2017-Dec-03 19:58N 45°05' E 013°38'0 0.0
2017-Dec-03 19:19N 45°05' E 013°38'0 0.0
2017-Dec-03 18:58N 45°05' E 013°38'0 0.0
2017-Dec-03 18:28N 45°05' E 013°38'0 0.0
2017-Dec-03 17:58N 45°05' E 013°38'0 0.0
2017-Dec-03 17:25N 45°05' E 013°38'0 0.0
2017-Dec-03 16:59N 45°05' E 013°38'0 0.0
2017-Dec-03 16:30N 45°05' E 013°38'0 0.0
2017-Dec-03 16:01N 45°05' E 013°38'0 0.0
2017-Dec-03 15:30N 45°05' E 013°38'0 0.0
2017-Dec-03 15:00N 45°05' E 013°38'0 0.0
2017-Dec-03 14:30N 45°05' E 013°38'0 0.0
2017-Dec-03 14:00N 45°05' E 013°38'0 0.0
2017-Dec-03 13:30N 45°05' E 013°38'0 0.0
2017-Dec-03 13:00N 45°05' E 013°38'0 0.0
2017-Dec-03 12:30N 45°05' E 013°38'0 0.0
2017-Dec-03 12:01N 45°05' E 013°38'0 0.0
2017-Dec-03 11:30N 45°05' E 013°38'0 0.0
2017-Dec-03 11:00N 45°05' E 013°38'0 0.0
2017-Dec-03 10:30N 45°05' E 013°38'0 0.0
2017-Dec-03 10:00N 45°05' E 013°38'0 0.0
2017-Dec-03 09:30N 45°05' E 013°38'0 0.0
2017-Dec-03 09:00N 45°05' E 013°38'0 0.0
2017-Dec-03 08:30N 45°05' E 013°38'0 0.0
2017-Dec-03 08:01N 45°05' E 013°38'0 0.0
2017-Dec-03 07:31N 45°05' E 013°38'1 2.6
2017-Dec-03 07:00N 45°05' E 013°36'5 9.6
2017-Dec-03 06:30N 45°00' E 013°39'611.3
2017-Dec-03 06:00N 44°57' E 013°46'3 0.1
2017-Dec-02 05:59N 44°53' E 013°47'1 2.7
2017-Dec-02 05:29N 44°52' E 013°47'1 2.1
2017-Dec-02 04:59N 44°53' E 013°46'0 0.4
2017-Dec-02 04:30N 44°53' E 013°47'3 6.3
2017-Dec-02 04:00N 44°52' E 013°42'4 8.5
2017-Dec-02 03:30N 44°56' E 013°40'4 8.7
2017-Dec-02 03:00N 45°00' E 013°38'4 8.6
2017-Dec-02 02:30N 45°03' E 013°34'5 9.4
2017-Dec-02 02:00N 45°08' E 013°32'5 9.4
2017-Dec-02 01:30N 45°12' E 013°31'5 9.4
2017-Dec-02 01:00N 45°17' E 013°30'5 9.2
2017-Dec-02 00:30N 45°22' E 013°28'5 9.3
2017-Dec-02 00:00N 45°26' E 013°27'4 8.8
2017-Dec-01 23:30N 45°31' E 013°27'5 9.1
2017-Dec-01 23:00N 45°33' E 013°32'5 9.1
2017-Dec-01 22:30N 45°34' E 013°38'4 6.8
2017-Dec-01 21:56N 45°33' E 013°44'0 0.0
2017-Dec-01 21:26N 45°33' E 013°44'0 0.0
2017-Dec-01 20:56N 45°33' E 013°44'0 0.0
2017-Dec-01 20:29N 45°33' E 013°44'0 0.0
2017-Dec-01 19:53N 45°33' E 013°44'0 0.0
2017-Dec-01 19:26N 45°33' E 013°44'0 0.0
2017-Dec-01 18:59N 45°33' E 013°44'0 0.0
2017-Dec-01 18:29N 45°33' E 013°44'0 0.0
2017-Dec-01 17:56N 45°33' E 013°44'0 0.0
2017-Dec-01 17:31N 45°33' E 013°44'0 0.0
2017-Dec-01 17:00N 45°33' E 013°44'  
Track history (hours):
 
Tides and Currents Weather Stations Pressure Air Temp Water Temp Dewpoint Dewpoint Depression Visibility Wind Speed Wind Dir Waves Ship Positions

Arethusa

Last reported at 2017-Dec-11 16:40 UTC. Time now 2017-Dec-12 04:50 UTC.
Position N 45°39' E 013°46'.

Length 60 m; draft 3 m.

Type: Passenger vessel. MMSI: 249069000.

Date/timePositionNaut miles runAvg speedWind from/ knotsBaromVisibWave heightAir tempDewpointWater temp
2017-Dec-11 16:40N 45°39' E 013°46'0 0.0
2017-Dec-11 16:28N 45°39' E 013°46'0 0.0
2017-Dec-11 15:01N 45°39' E 013°46'0 0.0
2017-Dec-11 14:43N 45°39' E 013°46'0 0.0
2017-Dec-11 14:13N 45°39' E 013°46'0 0.0
2017-Dec-11 13:55N 45°39' E 013°46'0 0.0
2017-Dec-11 13:22N 45°39' E 013°46'0 0.0
2017-Dec-11 12:52N 45°39' E 013°46'0 0.0
2017-Dec-11 12:28N 45°39' E 013°46'0 0.0
2017-Dec-11 11:55N 45°39' E 013°46'0 0.0
2017-Dec-11 11:28N 45°39' E 013°46'0 0.0
2017-Dec-11 10:52N 45°39' E 013°46'0 0.0
2017-Dec-11 10:19N 45°39' E 013°46'0 0.0
2017-Dec-11 09:58N 45°39' E 013°46'0 0.0
2017-Dec-11 09:28N 45°39' E 013°46'0 0.0
2017-Dec-11 08:43N 45°39' E 013°46'0 0.0
2017-Dec-11 08:22N 45°39' E 013°46'0 0.0
2017-Dec-11 06:52N 45°39' E 013°46'0 0.0
2017-Dec-11 06:19N 45°39' E 013°46'0 0.1
2017-Dec-11 05:52N 45°39' E 013°46'1 3.7
2017-Dec-11 05:29N 45°40' E 013°44'0 0.4
2017-Dec-11 04:59N 45°40' E 013°44'0 0.0
2017-Dec-11 04:29N 45°40' E 013°44'0 0.0
2017-Dec-11 03:59N 45°40' E 013°44'0 0.0
2017-Dec-11 03:26N 45°40' E 013°44'0 0.0
2017-Dec-11 02:59N 45°40' E 013°44'0 0.0
2017-Dec-11 02:29N 45°40' E 013°44'0 0.0
2017-Dec-11 01:56N 45°40' E 013°44'0 0.0
2017-Dec-11 01:23N 45°40' E 013°44'0 0.0
2017-Dec-11 00:50N 45°40' E 013°44'0 0.0
2017-Dec-11 00:29N 45°40' E 013°44'0 0.0
2017-Dec-11 00:00N 45°40' E 013°44'2 3.4
2017-Dec-10 23:30N 45°39' E 013°42'4 7.0
2017-Dec-10 23:00N 45°35' E 013°40'4 6.2
2017-Dec-10 22:25N 45°33' E 013°44'0 0.0
2017-Dec-10 21:55N 45°33' E 013°44'0 0.0
2017-Dec-10 21:25N 45°33' E 013°44'0 0.0
2017-Dec-10 20:58N 45°33' E 013°44'0 0.0
2017-Dec-10 20:28N 45°33' E 013°44'0 0.0
2017-Dec-10 19:58N 45°33' E 013°44'0 0.0
2017-Dec-10 19:28N 45°33' E 013°44'0 0.0
2017-Dec-10 18:58N 45°33' E 013°44'0 0.0
2017-Dec-10 18:28N 45°33' E 013°44'0 0.0
2017-Dec-10 17:58N 45°33' E 013°44'0 0.0
2017-Dec-10 17:28N 45°33' E 013°44'0 0.0
2017-Dec-10 16:49N 45°33' E 013°44'0 0.0
2017-Dec-10 16:28N 45°33' E 013°44'0 0.0
2017-Dec-10 15:58N 45°33' E 013°44'0 0.0
2017-Dec-10 15:19N 45°33' E 013°44'0 0.0
2017-Dec-10 14:58N 45°33' E 013°44'0 0.0
2017-Dec-10 14:28N 45°33' E 013°44'0 0.0
2017-Dec-10 13:58N 45°33' E 013°44'0 0.0
2017-Dec-10 13:28N 45°33' E 013°44'0 0.0
2017-Dec-10 12:58N 45°33' E 013°44'0 0.0
2017-Dec-10 12:28N 45°33' E 013°44'0 0.0
2017-Dec-10 11:58N 45°33' E 013°44'0 0.0
2017-Dec-10 11:22N 45°33' E 013°44'0 0.0
2017-Dec-10 10:43N 45°33' E 013°44'0 0.0
2017-Dec-10 10:28N 45°33' E 013°44'0 0.0
2017-Dec-10 09:46N 45°33' E 013°44'0 0.0
2017-Dec-10 09:25N 45°33' E 013°44'0 0.0
2017-Dec-10 08:58N 45°33' E 013°44'0 0.0
2017-Dec-10 08:28N 45°33' E 013°44'0 0.0
2017-Dec-10 07:52N 45°33' E 013°44'0 0.0
2017-Dec-10 07:28N 45°33' E 013°44'0 0.0
2017-Dec-10 06:58N 45°33' E 013°44'0 0.0
2017-Dec-10 06:30N 45°33' E 013°44'2 3.5
2017-Dec-10 05:56N 45°34' E 013°42'0 0.1
2017-Dec-10 05:29N 45°34' E 013°42'0 0.0
2017-Dec-10 04:59N 45°34' E 013°42'0 0.0
2017-Dec-10 04:29N 45°34' E 013°42'0 0.0
2017-Dec-10 03:59N 45°34' E 013°42'0 0.0
2017-Dec-10 03:29N 45°34' E 013°42'0 0.0
2017-Dec-10 02:59N 45°34' E 013°42'0 0.0
2017-Dec-10 02:29N 45°34' E 013°42'0 0.0
2017-Dec-10 01:59N 45°34' E 013°42'0 0.0
2017-Dec-10 01:29N 45°34' E 013°42'0 0.0
2017-Dec-10 00:59N 45°34' E 013°42'0 0.0
2017-Dec-10 00:29N 45°34' E 013°42'0 0.0
2017-Dec-09 23:59N 45°34' E 013°42'0 0.0
2017-Dec-09 23:29N 45°34' E 013°42'0 0.0
2017-Dec-09 22:59N 45°34' E 013°42'0 0.0
2017-Dec-09 22:29N 45°34' E 013°42'0 0.0
2017-Dec-09 21:59N 45°34' E 013°42'0 0.0
2017-Dec-09 21:29N 45°34' E 013°42'0 0.0
2017-Dec-09 21:01N 45°34' E 013°42'1 3.0
2017-Dec-09 20:30N 45°34' E 013°39'5 9.5
2017-Dec-09 20:01N 45°35' E 013°33'5 9.6
2017-Dec-09 19:30N 45°32' E 013°27'5 9.7
2017-Dec-09 19:00N 45°27' E 013°27'5 9.9
2017-Dec-09 18:30N 45°22' E 013°27'5 9.9
2017-Dec-09 18:00N 45°18' E 013°28'5 9.7
2017-Dec-09 17:31N 45°13' E 013°29'5 9.5
2017-Dec-09 17:01N 45°08' E 013°30'5 9.1
2017-Dec-09 16:31N 45°05' E 013°35'2 3.6
2017-Dec-09 15:52N 45°05' E 013°38'0 0.0
2017-Dec-09 15:28N 45°05' E 013°38'0 0.0
2017-Dec-09 14:58N 45°05' E 013°38'0 0.0
2017-Dec-09 14:25N 45°05' E 013°38'0 0.0
2017-Dec-09 13:58N 45°05' E 013°38'0 0.0
2017-Dec-09 13:28N 45°05' E 013°38'0 0.0
2017-Dec-09 12:58N 45°05' E 013°38'0 0.0
2017-Dec-09 12:28N 45°05' E 013°38'0 0.0
2017-Dec-09 11:58N 45°05' E 013°38'0 0.0
2017-Dec-09 11:22N 45°05' E 013°38'0 0.0
2017-Dec-09 10:55N 45°05' E 013°38'0 0.0
2017-Dec-09 10:28N 45°05' E 013°38'0 0.0
2017-Dec-09 09:52N 45°05' E 013°38'0 0.0
2017-Dec-09 09:28N 45°05' E 013°38'0 0.0
2017-Dec-09 08:52N 45°05' E 013°38'0 0.0
2017-Dec-09 08:25N 45°05' E 013°38'0 0.0
2017-Dec-09 07:58N 45°05' E 013°38'0 0.0
2017-Dec-09 07:28N 45°05' E 013°38'2 4.4
2017-Dec-09 07:00N 45°04' E 013°36'4 8.8
2017-Dec-09 06:30N 45°00' E 013°39'611.2
2017-Dec-09 06:00N 44°57' E 013°46'5 0.2
2017-Dec-07 22:15N 44°53' E 013°50'2 6.2
2017-Dec-07 21:58N 44°53' E 013°48'4 8.6
2017-Dec-07 21:30N 44°54' E 013°42'611.0
2017-Dec-07 21:00N 44°56' E 013°35'611.1
2017-Dec-07 20:30N 44°58' E 013°28'611.3
2017-Dec-07 20:00N 45°01' E 013°21'611.3
2017-Dec-07 19:30N 45°03' E 013°13'611.3
2017-Dec-07 19:00N 45°05' E 013°06'611.3
2017-Dec-07 18:30N 45°08' E 012°59'611.4
2017-Dec-07 18:00N 45°11' E 012°52'611.4
2017-Dec-07 17:30N 45°15' E 012°46'611.4
2017-Dec-07 17:00N 45°18' E 012°39'611.5
2017-Dec-07 16:30N 45°21' E 012°33'611.4
2017-Dec-07 16:00N 45°25' E 012°26'3 6.8
2017-Dec-07 15:30N 45°25' E 012°22'2 3.4
2017-Dec-07 15:00N 45°26' E 012°19'0 0.0
2017-Dec-07 14:30N 45°26' E 012°19'0 0.0
2017-Dec-07 14:00N 45°26' E 012°19'0 0.0
2017-Dec-07 13:30N 45°26' E 012°19'0 0.0
2017-Dec-07 13:00N 45°26' E 012°19'0 0.0
2017-Dec-07 12:30N 45°26' E 012°19'0 0.0
2017-Dec-07 12:00N 45°26' E 012°19'0 0.0
2017-Dec-07 11:30N 45°26' E 012°19'0 0.0
2017-Dec-07 11:00N 45°26' E 012°19'0 0.0
2017-Dec-07 10:30N 45°26' E 012°19'0 0.0
2017-Dec-07 09:57N 45°26' E 012°19'0 0.0
2017-Dec-07 09:30N 45°26' E 012°19'0 0.0
2017-Dec-07 09:00N 45°26' E 012°19'0 0.0
2017-Dec-07 08:30N 45°26' E 012°19'0 0.0
2017-Dec-07 08:00N 45°26' E 012°19'0 0.0
2017-Dec-07 07:30N 45°26' E 012°19'0 0.0
2017-Dec-07 07:00N 45°26' E 012°19'0 0.0
2017-Dec-07 06:30N 45°26' E 012°19'0 0.0
2017-Dec-07 06:00N 45°26' E 012°19'0 0.0
2017-Dec-07 05:30N 45°26' E 012°19'0 0.0
2017-Dec-07 05:00N 45°26' E 012°19'0 0.0
2017-Dec-07 04:30N 45°26' E 012°19'0 0.0
2017-Dec-07 03:57N 45°26' E 012°19'0 0.0
2017-Dec-07 03:30N 45°26' E 012°19'0 0.0
2017-Dec-07 02:57N 45°26' E 012°19'0 0.0
2017-Dec-07 02:30N 45°26' E 012°19'0 0.0
2017-Dec-07 02:00N 45°26' E 012°19'0 0.0
2017-Dec-07 01:30N 45°26' E 012°19'0 0.0
2017-Dec-07 00:57N 45°26' E 012°19'0 0.0
2017-Dec-07 00:30N 45°26' E 012°19'0 0.0
2017-Dec-06 23:57N 45°26' E 012°19'0 0.0
2017-Dec-06 23:30N 45°26' E 012°19'0 0.1
2017-Dec-06 23:01N 45°26' E 012°19'2 5.0
2017-Dec-06 22:30N 45°26' E 012°23'4 8.6
2017-Dec-06 22:00N 45°24' E 012°29'9 9.7
2017-Dec-06 21:03N 45°25' E 012°42'110.1
2017-Dec-06 20:55N 45°26' E 012°43'  
2017-Dec-04 06:11N 45°46' E 013°38'0 2.6
2017-Dec-04 06:00N 45°46' E 013°38'4 7.0
2017-Dec-04 05:29N 45°42' E 013°38'4 8.2
2017-Dec-04 05:00N 45°39' E 013°37'5 9.8
2017-Dec-04 04:30N 45°35' E 013°32'5 9.9
2017-Dec-04 04:00N 45°32' E 013°26'5 9.8
2017-Dec-04 03:30N 45°27' E 013°27'5 9.9
2017-Dec-04 03:00N 45°22' E 013°27'5 9.7
2017-Dec-04 02:30N 45°17' E 013°28'5 9.7
2017-Dec-04 02:00N 45°12' E 013°29'5 9.0
2017-Dec-04 01:30N 45°08' E 013°30'5 9.5
2017-Dec-04 01:00N 45°05' E 013°36'2 2.5
2017-Dec-04 00:22N 45°05' E 013°38'0 0.0
2017-Dec-03 23:58N 45°05' E 013°38'0 0.0
2017-Dec-03 23:28N 45°05' E 013°38'0 0.0
2017-Dec-03 22:55N 45°05' E 013°38'0 0.0
2017-Dec-03 22:28N 45°05' E 013°38'0 0.0
2017-Dec-03 21:52N 45°05' E 013°38'0 0.0
2017-Dec-03 21:28N 45°05' E 013°38'0 0.0
2017-Dec-03 20:58N 45°05' E 013°38'0 0.0
2017-Dec-03 20:25N 45°05' E 013°38'0 0.0
2017-Dec-03 19:58N 45°05' E 013°38'0 0.0
2017-Dec-03 19:19N 45°05' E 013°38'0 0.0
2017-Dec-03 18:58N 45°05' E 013°38'0 0.0
2017-Dec-03 18:28N 45°05' E 013°38'0 0.0
2017-Dec-03 17:58N 45°05' E 013°38'0 0.0
2017-Dec-03 17:25N 45°05' E 013°38'0 0.0
2017-Dec-03 16:59N 45°05' E 013°38'0 0.0
2017-Dec-03 16:30N 45°05' E 013°38'0 0.0
2017-Dec-03 16:01N 45°05' E 013°38'0 0.0
2017-Dec-03 15:30N 45°05' E 013°38'0 0.0
2017-Dec-03 15:00N 45°05' E 013°38'0 0.0
2017-Dec-03 14:30N 45°05' E 013°38'0 0.0
2017-Dec-03 14:00N 45°05' E 013°38'0 0.0
2017-Dec-03 13:30N 45°05' E 013°38'0 0.0
2017-Dec-03 13:00N 45°05' E 013°38'0 0.0
2017-Dec-03 12:30N 45°05' E 013°38'0 0.0
2017-Dec-03 12:01N 45°05' E 013°38'0 0.0
2017-Dec-03 11:30N 45°05' E 013°38'0 0.0
2017-Dec-03 11:00N 45°05' E 013°38'0 0.0
2017-Dec-03 10:30N 45°05' E 013°38'0 0.0
2017-Dec-03 10:00N 45°05' E 013°38'0 0.0
2017-Dec-03 09:30N 45°05' E 013°38'0 0.0
2017-Dec-03 09:00N 45°05' E 013°38'0 0.0
2017-Dec-03 08:30N 45°05' E 013°38'0 0.0
2017-Dec-03 08:01N 45°05' E 013°38'0 0.0
2017-Dec-03 07:31N 45°05' E 013°38'1 2.6
2017-Dec-03 07:00N 45°05' E 013°36'5 9.6
2017-Dec-03 06:30N 45°00' E 013°39'611.3
2017-Dec-03 06:00N 44°57' E 013°46'3 0.1
2017-Dec-02 05:59N 44°53' E 013°47'1 2.7
2017-Dec-02 05:29N 44°52' E 013°47'1 2.1
2017-Dec-02 04:59N 44°53' E 013°46'0 0.4
2017-Dec-02 04:30N 44°53' E 013°47'3 6.3
2017-Dec-02 04:00N 44°52' E 013°42'4 8.5
2017-Dec-02 03:30N 44°56' E 013°40'4 8.7
2017-Dec-02 03:00N 45°00' E 013°38'4 8.6
2017-Dec-02 02:30N 45°03' E 013°34'5 9.4
2017-Dec-02 02:00N 45°08' E 013°32'5 9.4
2017-Dec-02 01:30N 45°12' E 013°31'5 9.4
2017-Dec-02 01:00N 45°17' E 013°30'5 9.2
2017-Dec-02 00:30N 45°22' E 013°28'5 9.3
2017-Dec-02 00:00N 45°26' E 013°27'4 8.8
2017-Dec-01 23:30N 45°31' E 013°27'5 9.1
2017-Dec-01 23:00N 45°33' E 013°32'5 9.1
2017-Dec-01 22:30N 45°34' E 013°38'4 6.8
2017-Dec-01 21:56N 45°33' E 013°44'0 0.0
2017-Dec-01 21:26N 45°33' E 013°44'0 0.0
2017-Dec-01 20:56N 45°33' E 013°44'0 0.0
2017-Dec-01 20:29N 45°33' E 013°44'0 0.0
2017-Dec-01 19:53N 45°33' E 013°44'0 0.0
2017-Dec-01 19:26N 45°33' E 013°44'0 0.0
2017-Dec-01 18:59N 45°33' E 013°44'0 0.0
2017-Dec-01 18:29N 45°33' E 013°44'0 0.0
2017-Dec-01 17:56N 45°33' E 013°44'0 0.0
2017-Dec-01 17:31N 45°33' E 013°44'0 0.0
2017-Dec-01 17:00N 45°33' E 013°44'  

Dump ship's entire track history